sensor_id;sensor_type;location;lat;lon;timestamp;temperature;humidity
27567;DHT22;15006;48.584;9.186;2023-06-22T00:00:53;17.80;84.50
27567;DHT22;15006;48.584;9.186;2023-06-22T00:03:21;17.80;84.70
27567;DHT22;15006;48.584;9.186;2023-06-22T00:05:50;17.80;84.80
27567;DHT22;15006;48.584;9.186;2023-06-22T00:08:17;17.80;84.70
27567;DHT22;15006;48.584;9.186;2023-06-22T00:10:44;17.80;84.70
27567;DHT22;15006;48.584;9.186;2023-06-22T00:13:12;17.90;85.00
27567;DHT22;15006;48.584;9.186;2023-06-22T00:15:40;17.90;85.00
27567;DHT22;15006;48.584;9.186;2023-06-22T00:18:07;17.90;85.00
27567;DHT22;15006;48.584;9.186;2023-06-22T00:20:34;17.90;85.10
27567;DHT22;15006;48.584;9.186;2023-06-22T00:23:04;17.90;85.10
27567;DHT22;15006;48.584;9.186;2023-06-22T00:25:35;17.90;85.50
27567;DHT22;15006;48.584;9.186;2023-06-22T00:28:03;17.90;85.30
27567;DHT22;15006;48.584;9.186;2023-06-22T00:30:31;17.90;85.20
27567;DHT22;15006;48.584;9.186;2023-06-22T00:32:58;17.90;85.40
27567;DHT22;15006;48.584;9.186;2023-06-22T00:35:24;17.90;85.30
27567;DHT22;15006;48.584;9.186;2023-06-22T00:37:57;17.90;85.30
27567;DHT22;15006;48.584;9.186;2023-06-22T00:40:27;17.90;85.40
27567;DHT22;15006;48.584;9.186;2023-06-22T00:42:54;17.90;85.50
27567;DHT22;15006;48.584;9.186;2023-06-22T00:45:22;17.90;85.60
27567;DHT22;15006;48.584;9.186;2023-06-22T00:47:53;17.90;85.60
27567;DHT22;15006;48.584;9.186;2023-06-22T00:50:22;17.90;85.60
27567;DHT22;15006;48.584;9.186;2023-06-22T00:52:52;17.80;85.60
27567;DHT22;15006;48.584;9.186;2023-06-22T00:55:23;17.80;85.80
27567;DHT22;15006;48.584;9.186;2023-06-22T00:57:49;17.80;86.20
27567;DHT22;15006;48.584;9.186;2023-06-22T01:00:15;17.80;85.90
27567;DHT22;15006;48.584;9.186;2023-06-22T01:02:46;17.80;86.90
27567;DHT22;15006;48.584;9.186;2023-06-22T01:05:16;17.70;86.20
27567;DHT22;15006;48.584;9.186;2023-06-22T01:11:32;17.60;87.70
27567;DHT22;15006;48.584;9.186;2023-06-22T01:14:24;17.60;87.90
27567;DHT22;15006;48.584;9.186;2023-06-22T01:16:54;17.60;87.70
27567;DHT22;15006;48.584;9.186;2023-06-22T01:19:46;17.50;87.60
27567;DHT22;15006;48.584;9.186;2023-06-22T01:22:24;17.50;88.70
27567;DHT22;15006;48.584;9.186;2023-06-22T01:25:19;17.40;88.00
27567;DHT22;15006;48.584;9.186;2023-06-22T01:30:30;17.40;88.50
27567;DHT22;15006;48.584;9.186;2023-06-22T01:32:57;17.40;88.80
27567;DHT22;15006;48.584;9.186;2023-06-22T01:35:24;17.40;89.00
27567;DHT22;15006;48.584;9.186;2023-06-22T01:37:50;17.30;89.10
27567;DHT22;15006;48.584;9.186;2023-06-22T01:40:18;17.30;89.30
27567;DHT22;15006;48.584;9.186;2023-06-22T01:42:45;17.30;89.70
27567;DHT22;15006;48.584;9.186;2023-06-22T01:45:12;17.30;89.70
27567;DHT22;15006;48.584;9.186;2023-06-22T01:47:39;17.30;89.80
27567;DHT22;15006;48.584;9.186;2023-06-22T01:50:05;17.20;89.80
27567;DHT22;15006;48.584;9.186;2023-06-22T01:52:32;17.20;90.00
27567;DHT22;15006;48.584;9.186;2023-06-22T01:55:00;17.20;90.00
27567;DHT22;15006;48.584;9.186;2023-06-22T01:57:27;17.20;90.00
27567;DHT22;15006;48.584;9.186;2023-06-22T02:02:23;17.10;90.10
27567;DHT22;15006;48.584;9.186;2023-06-22T02:05:09;17.10;90.00
27567;DHT22;15006;48.584;9.186;2023-06-22T02:10:43;17.00;90.40
27567;DHT22;15006;48.584;9.186;2023-06-22T02:13:10;17.00;90.10
27567;DHT22;15006;48.584;9.186;2023-06-22T02:15:37;16.90;90.30
27567;DHT22;15006;48.584;9.186;2023-06-22T02:18:04;16.80;90.50
27567;DHT22;15006;48.584;9.186;2023-06-22T02:20:31;16.80;90.70
27567;DHT22;15006;48.584;9.186;2023-06-22T02:22:57;16.80;90.90
27567;DHT22;15006;48.584;9.186;2023-06-22T02:25:23;16.80;91.10
27567;DHT22;15006;48.584;9.186;2023-06-22T02:27:49;16.70;91.20
27567;DHT22;15006;48.584;9.186;2023-06-22T02:30:15;16.70;91.30
27567;DHT22;15006;48.584;9.186;2023-06-22T02:32:42;16.80;91.50
27567;DHT22;15006;48.584;9.186;2023-06-22T02:35:09;16.70;91.70
27567;DHT22;15006;48.584;9.186;2023-06-22T02:37:36;16.70;91.80
27567;DHT22;15006;48.584;9.186;2023-06-22T02:40:10;16.70;91.90
27567;DHT22;15006;48.584;9.186;2023-06-22T02:42:37;16.70;92.00
27567;DHT22;15006;48.584;9.186;2023-06-22T02:45:05;16.70;91.90
27567;DHT22;15006;48.584;9.186;2023-06-22T02:47:31;16.70;92.30
27567;DHT22;15006;48.584;9.186;2023-06-22T02:49:57;16.70;92.00
27567;DHT22;15006;48.584;9.186;2023-06-22T02:52:23;16.80;92.00
27567;DHT22;15006;48.584;9.186;2023-06-22T02:54:49;16.70;91.90
27567;DHT22;15006;48.584;9.186;2023-06-22T02:57:15;16.70;91.70
27567;DHT22;15006;48.584;9.186;2023-06-22T02:59:41;16.70;91.70
27567;DHT22;15006;48.584;9.186;2023-06-22T03:02:08;16.70;91.70
27567;DHT22;15006;48.584;9.186;2023-06-22T03:04:35;16.70;91.90
27567;DHT22;15006;48.584;9.186;2023-06-22T03:07:02;16.60;91.90
27567;DHT22;15006;48.584;9.186;2023-06-22T03:09:28;16.60;92.10
27567;DHT22;15006;48.584;9.186;2023-06-22T03:11:55;16.60;92.10
27567;DHT22;15006;48.584;9.186;2023-06-22T03:14:21;16.60;92.10
27567;DHT22;15006;48.584;9.186;2023-06-22T03:16:47;16.60;92.00
27567;DHT22;15006;48.584;9.186;2023-06-22T03:19:13;16.50;92.10
27567;DHT22;15006;48.584;9.186;2023-06-22T03:21:40;16.50;92.20
27567;DHT22;15006;48.584;9.186;2023-06-22T03:24:07;16.50;92.30
27567;DHT22;15006;48.584;9.186;2023-06-22T03:26:33;16.50;92.40
27567;DHT22;15006;48.584;9.186;2023-06-22T03:29:00;16.40;92.20
27567;DHT22;15006;48.584;9.186;2023-06-22T03:31:26;16.40;92.30
27567;DHT22;15006;48.584;9.186;2023-06-22T03:33:52;16.40;92.40
27567;DHT22;15006;48.584;9.186;2023-06-22T03:36:18;16.30;92.40
27567;DHT22;15006;48.584;9.186;2023-06-22T03:38:49;16.30;92.60
27567;DHT22;15006;48.584;9.186;2023-06-22T03:41:16;16.30;93.00
27567;DHT22;15006;48.584;9.186;2023-06-22T03:43:42;16.30;92.90
27567;DHT22;15006;48.584;9.186;2023-06-22T03:46:08;16.30;93.10
27567;DHT22;15006;48.584;9.186;2023-06-22T03:48:34;16.20;93.20
27567;DHT22;15006;48.584;9.186;2023-06-22T03:51:01;16.20;93.30
27567;DHT22;15006;48.584;9.186;2023-06-22T03:53:29;16.20;93.50
27567;DHT22;15006;48.584;9.186;2023-06-22T03:55:55;16.20;93.60
27567;DHT22;15006;48.584;9.186;2023-06-22T03:58:21;16.20;93.70
27567;DHT22;15006;48.584;9.186;2023-06-22T04:00:51;16.20;93.90
27567;DHT22;15006;48.584;9.186;2023-06-22T04:03:18;16.20;94.20
27567;DHT22;15006;48.584;9.186;2023-06-22T04:05:45;16.20;94.30
27567;DHT22;15006;48.584;9.186;2023-06-22T04:08:12;16.30;94.50
27567;DHT22;15006;48.584;9.186;2023-06-22T04:10:40;16.30;94.60
27567;DHT22;15006;48.584;9.186;2023-06-22T04:13:06;16.30;94.60
27567;DHT22;15006;48.584;9.186;2023-06-22T04:15:32;16.40;94.80
27567;DHT22;15006;48.584;9.186;2023-06-22T04:17:58;16.40;94.90
27567;DHT22;15006;48.584;9.186;2023-06-22T04:20:24;16.50;94.90
27567;DHT22;15006;48.584;9.186;2023-06-22T04:22:53;16.50;94.90
27567;DHT22;15006;48.584;9.186;2023-06-22T04:25:19;16.60;95.10
27567;DHT22;15006;48.584;9.186;2023-06-22T04:27:46;16.60;95.00
27567;DHT22;15006;48.584;9.186;2023-06-22T04:30:12;16.70;95.00
27567;DHT22;15006;48.584;9.186;2023-06-22T04:32:40;16.70;95.00
27567;DHT22;15006;48.584;9.186;2023-06-22T04:35:07;16.80;94.90
27567;DHT22;15006;48.584;9.186;2023-06-22T04:37:33;16.80;94.80
27567;DHT22;15006;48.584;9.186;2023-06-22T04:40:00;16.90;94.80
27567;DHT22;15006;48.584;9.186;2023-06-22T04:42:26;17.00;94.70
27567;DHT22;15006;48.584;9.186;2023-06-22T04:44:53;17.10;94.60
27567;DHT22;15006;48.584;9.186;2023-06-22T04:47:19;17.10;94.50
27567;DHT22;15006;48.584;9.186;2023-06-22T04:49:45;17.20;94.40
27567;DHT22;15006;48.584;9.186;2023-06-22T04:52:13;17.30;94.20
27567;DHT22;15006;48.584;9.186;2023-06-22T04:54:40;17.30;94.20
27567;DHT22;15006;48.584;9.186;2023-06-22T04:57:13;17.40;94.00
27567;DHT22;15006;48.584;9.186;2023-06-22T04:59:40;17.50;93.80
27567;DHT22;15006;48.584;9.186;2023-06-22T05:02:07;17.60;93.70
27567;DHT22;15006;48.584;9.186;2023-06-22T05:04:34;17.60;93.50
27567;DHT22;15006;48.584;9.186;2023-06-22T05:07:04;17.70;93.30
27567;DHT22;15006;48.584;9.186;2023-06-22T05:09:30;17.80;93.10
27567;DHT22;15006;48.584;9.186;2023-06-22T05:11:56;17.90;92.90
27567;DHT22;15006;48.584;9.186;2023-06-22T05:14:22;17.90;92.50
27567;DHT22;15006;48.584;9.186;2023-06-22T05:16:49;18.00;92.20
27567;DHT22;15006;48.584;9.186;2023-06-22T05:19:17;18.00;92.00
27567;DHT22;15006;48.584;9.186;2023-06-22T05:21:43;18.10;91.80
27567;DHT22;15006;48.584;9.186;2023-06-22T05:24:09;18.20;91.80
27567;DHT22;15006;48.584;9.186;2023-06-22T05:26:35;18.20;91.60
27567;DHT22;15006;48.584;9.186;2023-06-22T05:29:02;18.30;91.50
27567;DHT22;15006;48.584;9.186;2023-06-22T05:31:29;18.40;91.40
27567;DHT22;15006;48.584;9.186;2023-06-22T05:33:55;18.50;91.30
27567;DHT22;15006;48.584;9.186;2023-06-22T05:36:22;18.60;91.00
27567;DHT22;15006;48.584;9.186;2023-06-22T05:38:52;18.70;90.90
27567;DHT22;15006;48.584;9.186;2023-06-22T05:41:18;18.70;90.50
27567;DHT22;15006;48.584;9.186;2023-06-22T05:43:44;18.80;90.50
27567;DHT22;15006;48.584;9.186;2023-06-22T05:46:10;19.00;90.20
27567;DHT22;15006;48.584;9.186;2023-06-22T05:48:36;19.10;89.70
27567;DHT22;15006;48.584;9.186;2023-06-22T05:51:03;19.20;89.00
27567;DHT22;15006;48.584;9.186;2023-06-22T05:53:29;19.40;88.50
27567;DHT22;15006;48.584;9.186;2023-06-22T05:55:55;19.50;87.80
27567;DHT22;15006;48.584;9.186;2023-06-22T05:58:21;19.60;87.30
27567;DHT22;15006;48.584;9.186;2023-06-22T06:00:47;19.80;86.60
27567;DHT22;15006;48.584;9.186;2023-06-22T06:03:13;19.90;86.00
27567;DHT22;15006;48.584;9.186;2023-06-22T06:05:42;20.00;85.20
27567;DHT22;15006;48.584;9.186;2023-06-22T06:08:10;20.10;84.10
27567;DHT22;15006;48.584;9.186;2023-06-22T06:10:37;20.30;83.80
27567;DHT22;15006;48.584;9.186;2023-06-22T06:13:03;20.40;83.30
27567;DHT22;15006;48.584;9.186;2023-06-22T06:15:31;20.50;82.30
27567;DHT22;15006;48.584;9.186;2023-06-22T06:17:57;20.70;82.00
27567;DHT22;15006;48.584;9.186;2023-06-22T06:20:25;20.80;81.70
27567;DHT22;15006;48.584;9.186;2023-06-22T06:22:53;20.90;80.90
27567;DHT22;15006;48.584;9.186;2023-06-22T06:25:19;21.00;80.10
27567;DHT22;15006;48.584;9.186;2023-06-22T06:27:49;21.20;79.50
27567;DHT22;15006;48.584;9.186;2023-06-22T06:30:16;21.30;79.10
27567;DHT22;15006;48.584;9.186;2023-06-22T06:32:44;21.40;78.40
27567;DHT22;15006;48.584;9.186;2023-06-22T06:35:13;21.50;77.70
27567;DHT22;15006;48.584;9.186;2023-06-22T06:37:42;21.60;77.00
27567;DHT22;15006;48.584;9.186;2023-06-22T06:40:10;21.70;76.80
27567;DHT22;15006;48.584;9.186;2023-06-22T06:42:38;21.90;76.20
27567;DHT22;15006;48.584;9.186;2023-06-22T06:45:08;22.00;75.80
27567;DHT22;15006;48.584;9.186;2023-06-22T06:47:34;22.10;74.90
27567;DHT22;15006;48.584;9.186;2023-06-22T06:50:00;22.20;74.30
27567;DHT22;15006;48.584;9.186;2023-06-22T06:52:26;22.30;73.70
27567;DHT22;15006;48.584;9.186;2023-06-22T06:54:53;22.40;73.60
27567;DHT22;15006;48.584;9.186;2023-06-22T06:57:19;22.60;73.30
27567;DHT22;15006;48.584;9.186;2023-06-22T06:59:46;22.70;72.80
27567;DHT22;15006;48.584;9.186;2023-06-22T07:02:12;22.80;72.20
27567;DHT22;15006;48.584;9.186;2023-06-22T07:04:38;23.00;71.60
27567;DHT22;15006;48.584;9.186;2023-06-22T07:07:04;23.10;71.30
27567;DHT22;15006;48.584;9.186;2023-06-22T07:09:31;23.40;71.50
27567;DHT22;15006;48.584;9.186;2023-06-22T07:11:57;23.50;70.90
27567;DHT22;15006;48.584;9.186;2023-06-22T07:14:23;23.70;69.60
27567;DHT22;15006;48.584;9.186;2023-06-22T07:16:49;23.90;68.20
27567;DHT22;15006;48.584;9.186;2023-06-22T07:19:15;24.00;67.60
27567;DHT22;15006;48.584;9.186;2023-06-22T07:21:41;24.20;67.80
27567;DHT22;15006;48.584;9.186;2023-06-22T07:24:07;24.30;67.90
27567;DHT22;15006;48.584;9.186;2023-06-22T07:26:33;24.40;66.90
27567;DHT22;15006;48.584;9.186;2023-06-22T07:29:00;24.60;66.20
27567;DHT22;15006;48.584;9.186;2023-06-22T07:31:26;24.80;65.10
27567;DHT22;15006;48.584;9.186;2023-06-22T07:33:52;25.00;64.90
27567;DHT22;15006;48.584;9.186;2023-06-22T07:36:18;25.10;63.90
27567;DHT22;15006;48.584;9.186;2023-06-22T07:38:44;25.30;63.70
27567;DHT22;15006;48.584;9.186;2023-06-22T07:41:10;25.50;62.90
27567;DHT22;15006;48.584;9.186;2023-06-22T07:43:36;25.60;62.10
27567;DHT22;15006;48.584;9.186;2023-06-22T07:46:06;25.90;61.50
27567;DHT22;15006;48.584;9.186;2023-06-22T07:48:32;26.00;60.60
27567;DHT22;15006;48.584;9.186;2023-06-22T07:50:58;26.20;60.70
27567;DHT22;15006;48.584;9.186;2023-06-22T07:53:24;26.40;60.40
27567;DHT22;15006;48.584;9.186;2023-06-22T07:55:50;26.60;59.40
27567;DHT22;15006;48.584;9.186;2023-06-22T07:58:16;26.70;58.20
27567;DHT22;15006;48.584;9.186;2023-06-22T08:00:44;26.90;57.60
27567;DHT22;15006;48.584;9.186;2023-06-22T08:03:10;27.10;57.20
27567;DHT22;15006;48.584;9.186;2023-06-22T08:05:36;27.30;56.80
27567;DHT22;15006;48.584;9.186;2023-06-22T08:08:02;27.40;56.20
27567;DHT22;15006;48.584;9.186;2023-06-22T08:10:29;27.50;55.80
27567;DHT22;15006;48.584;9.186;2023-06-22T08:12:55;27.60;56.20
27567;DHT22;15006;48.584;9.186;2023-06-22T08:15:21;27.80;55.50
27567;DHT22;15006;48.584;9.186;2023-06-22T08:17:47;28.00;54.00
27567;DHT22;15006;48.584;9.186;2023-06-22T08:20:13;28.10;53.90
27567;DHT22;15006;48.584;9.186;2023-06-22T08:22:40;28.20;53.00
27567;DHT22;15006;48.584;9.186;2023-06-22T08:25:08;28.40;52.60
27567;DHT22;15006;48.584;9.186;2023-06-22T08:27:34;28.50;52.60
27567;DHT22;15006;48.584;9.186;2023-06-22T08:30:01;28.60;53.00
27567;DHT22;15006;48.584;9.186;2023-06-22T08:32:28;28.60;51.80
27567;DHT22;15006;48.584;9.186;2023-06-22T08:34:56;28.70;51.00
27567;DHT22;15006;48.584;9.186;2023-06-22T08:37:23;28.60;51.40
27567;DHT22;15006;48.584;9.186;2023-06-22T08:39:50;28.60;51.10
27567;DHT22;15006;48.584;9.186;2023-06-22T08:42:16;28.70;51.20
27567;DHT22;15006;48.584;9.186;2023-06-22T08:44:42;28.60;51.30
27567;DHT22;15006;48.584;9.186;2023-06-22T08:47:08;28.70;52.50
27567;DHT22;15006;48.584;9.186;2023-06-22T08:49:34;28.70;52.70
27567;DHT22;15006;48.584;9.186;2023-06-22T08:52:00;28.70;51.60
27567;DHT22;15006;48.584;9.186;2023-06-22T08:54:26;28.80;50.70
27567;DHT22;15006;48.584;9.186;2023-06-22T08:56:52;28.80;51.60
27567;DHT22;15006;48.584;9.186;2023-06-22T08:59:19;28.80;50.60
27567;DHT22;15006;48.584;9.186;2023-06-22T09:01:45;28.90;50.50
27567;DHT22;15006;48.584;9.186;2023-06-22T09:04:14;28.90;50.70
27567;DHT22;15006;48.584;9.186;2023-06-22T09:06:40;29.00;49.50
27567;DHT22;15006;48.584;9.186;2023-06-22T09:09:12;29.00;50.10
27567;DHT22;15006;48.584;9.186;2023-06-22T09:11:38;29.00;50.20
27567;DHT22;15006;48.584;9.186;2023-06-22T09:14:04;29.00;49.60
27567;DHT22;15006;48.584;9.186;2023-06-22T09:16:31;29.00;49.90
27567;DHT22;15006;48.584;9.186;2023-06-22T09:18:57;29.00;50.20
27567;DHT22;15006;48.584;9.186;2023-06-22T09:21:23;29.00;49.90
27567;DHT22;15006;48.584;9.186;2023-06-22T09:23:49;29.00;49.90
27567;DHT22;15006;48.584;9.186;2023-06-22T09:26:18;29.00;50.40
27567;DHT22;15006;48.584;9.186;2023-06-22T09:28:45;29.00;49.90
27567;DHT22;15006;48.584;9.186;2023-06-22T09:31:11;29.10;49.30
27567;DHT22;15006;48.584;9.186;2023-06-22T09:33:39;29.00;49.70
27567;DHT22;15006;48.584;9.186;2023-06-22T09:36:06;29.00;49.60
27567;DHT22;15006;48.584;9.186;2023-06-22T09:38:36;28.90;49.40
27567;DHT22;15006;48.584;9.186;2023-06-22T09:41:03;28.90;49.70
27567;DHT22;15006;48.584;9.186;2023-06-22T09:43:31;28.80;49.70
27567;DHT22;15006;48.584;9.186;2023-06-22T09:45:58;28.80;49.90
27567;DHT22;15006;48.584;9.186;2023-06-22T09:48:24;28.90;49.80
27567;DHT22;15006;48.584;9.186;2023-06-22T09:50:50;28.90;50.20
27567;DHT22;15006;48.584;9.186;2023-06-22T09:53:16;29.10;49.80
27567;DHT22;15006;48.584;9.186;2023-06-22T09:55:42;29.20;50.20
27567;DHT22;15006;48.584;9.186;2023-06-22T09:58:08;29.40;49.50
27567;DHT22;15006;48.584;9.186;2023-06-22T10:00:35;29.60;50.40
27567;DHT22;15006;48.584;9.186;2023-06-22T10:03:01;29.80;49.20
27567;DHT22;15006;48.584;9.186;2023-06-22T10:05:27;30.00;48.30
27567;DHT22;15006;48.584;9.186;2023-06-22T10:07:53;30.10;47.90
27567;DHT22;15006;48.584;9.186;2023-06-22T10:10:19;30.10;47.80
27567;DHT22;15006;48.584;9.186;2023-06-22T10:12:47;30.10;47.80
27567;DHT22;15006;48.584;9.186;2023-06-22T10:15:15;30.10;48.00
27567;DHT22;15006;48.584;9.186;2023-06-22T10:17:41;30.10;47.50
27567;DHT22;15006;48.584;9.186;2023-06-22T10:20:08;30.20;48.50
27567;DHT22;15006;48.584;9.186;2023-06-22T10:22:41;30.30;48.10
27567;DHT22;15006;48.584;9.186;2023-06-22T10:25:10;30.50;47.50
27567;DHT22;15006;48.584;9.186;2023-06-22T10:27:37;30.80;48.10
27567;DHT22;15006;48.584;9.186;2023-06-22T10:30:09;31.10;48.30
27567;DHT22;15006;48.584;9.186;2023-06-22T10:32:39;31.30;46.20
27567;DHT22;15006;48.584;9.186;2023-06-22T10:35:06;31.50;45.70
27567;DHT22;15006;48.584;9.186;2023-06-22T10:37:32;31.70;44.80
27567;DHT22;15006;48.584;9.186;2023-06-22T10:39:58;31.80;44.70
27567;DHT22;15006;48.584;9.186;2023-06-22T10:42:24;31.80;44.30
27567;DHT22;15006;48.584;9.186;2023-06-22T10:44:50;31.80;43.60
27567;DHT22;15006;48.584;9.186;2023-06-22T10:47:16;31.80;43.20
27567;DHT22;15006;48.584;9.186;2023-06-22T10:49:42;31.80;43.00
27567;DHT22;15006;48.584;9.186;2023-06-22T10:52:09;31.80;43.40
27567;DHT22;15006;48.584;9.186;2023-06-22T10:54:35;31.80;43.70
27567;DHT22;15006;48.584;9.186;2023-06-22T10:57:03;31.80;44.60
27567;DHT22;15006;48.584;9.186;2023-06-22T10:59:29;31.90;44.30
27567;DHT22;15006;48.584;9.186;2023-06-22T11:01:56;31.90;43.80
27567;DHT22;15006;48.584;9.186;2023-06-22T11:04:23;31.90;43.70
27567;DHT22;15006;48.584;9.186;2023-06-22T11:06:50;32.00;42.80
27567;DHT22;15006;48.584;9.186;2023-06-22T11:09:17;32.00;42.80
27567;DHT22;15006;48.584;9.186;2023-06-22T11:11:47;32.00;42.70
27567;DHT22;15006;48.584;9.186;2023-06-22T11:14:13;32.00;42.50
27567;DHT22;15006;48.584;9.186;2023-06-22T11:16:39;32.00;42.10
27567;DHT22;15006;48.584;9.186;2023-06-22T11:19:06;32.00;41.80
27567;DHT22;15006;48.584;9.186;2023-06-22T11:21:32;32.00;42.00
27567;DHT22;15006;48.584;9.186;2023-06-22T11:23:59;31.90;41.70
27567;DHT22;15006;48.584;9.186;2023-06-22T11:26:26;31.90;42.20
27567;DHT22;15006;48.584;9.186;2023-06-22T11:28:55;31.80;42.00
27567;DHT22;15006;48.584;9.186;2023-06-22T11:31:21;31.80;42.80
27567;DHT22;15006;48.584;9.186;2023-06-22T11:33:47;31.80;43.20
27567;DHT22;15006;48.584;9.186;2023-06-22T11:36:14;31.90;43.00
27567;DHT22;15006;48.584;9.186;2023-06-22T11:38:42;32.00;42.70
27567;DHT22;15006;48.584;9.186;2023-06-22T11:41:09;32.00;42.60
27567;DHT22;15006;48.584;9.186;2023-06-22T11:43:36;32.00;42.20
27567;DHT22;15006;48.584;9.186;2023-06-22T11:46:06;32.00;41.90
27567;DHT22;15006;48.584;9.186;2023-06-22T11:48:32;31.90;41.70
27567;DHT22;15006;48.584;9.186;2023-06-22T11:50:58;31.80;41.70
27567;DHT22;15006;48.584;9.186;2023-06-22T11:53:26;31.70;41.50
27567;DHT22;15006;48.584;9.186;2023-06-22T11:55:53;31.60;42.90
27567;DHT22;15006;48.584;9.186;2023-06-22T11:58:20;31.60;42.60
27567;DHT22;15006;48.584;9.186;2023-06-22T12:00:47;31.60;42.60
27567;DHT22;15006;48.584;9.186;2023-06-22T12:03:14;31.60;42.10
27567;DHT22;15006;48.584;9.186;2023-06-22T12:05:42;31.60;42.10
27567;DHT22;15006;48.584;9.186;2023-06-22T12:08:08;31.60;41.80
27567;DHT22;15006;48.584;9.186;2023-06-22T12:10:34;31.60;41.50
27567;DHT22;15006;48.584;9.186;2023-06-22T12:13:00;31.50;41.80
27567;DHT22;15006;48.584;9.186;2023-06-22T12:15:27;31.50;42.80
27567;DHT22;15006;48.584;9.186;2023-06-22T12:17:53;31.50;42.80
27567;DHT22;15006;48.584;9.186;2023-06-22T12:20:19;31.40;43.30
27567;DHT22;15006;48.584;9.186;2023-06-22T12:22:45;31.40;44.00
27567;DHT22;15006;48.584;9.186;2023-06-22T12:25:11;31.20;43.60
27567;DHT22;15006;48.584;9.186;2023-06-22T12:27:38;30.90;43.80
27567;DHT22;15006;48.584;9.186;2023-06-22T12:30:04;30.70;44.20
27567;DHT22;15006;48.584;9.186;2023-06-22T12:32:31;30.40;44.60
27567;DHT22;15006;48.584;9.186;2023-06-22T12:34:57;30.10;44.70
27567;DHT22;15006;48.584;9.186;2023-06-22T12:37:23;29.80;45.70
27567;DHT22;15006;48.584;9.186;2023-06-22T12:39:49;29.50;46.80
27567;DHT22;15006;48.584;9.186;2023-06-22T12:42:16;29.20;47.50
27567;DHT22;15006;48.584;9.186;2023-06-22T12:44:42;29.00;48.20
27567;DHT22;15006;48.584;9.186;2023-06-22T12:47:09;28.80;48.90
27567;DHT22;15006;48.584;9.186;2023-06-22T12:49:35;28.60;49.50
27567;DHT22;15006;48.584;9.186;2023-06-22T12:52:03;28.40;50.00
27567;DHT22;15006;48.584;9.186;2023-06-22T12:54:30;28.40;50.60
27567;DHT22;15006;48.584;9.186;2023-06-22T12:56:56;28.30;50.30
27567;DHT22;15006;48.584;9.186;2023-06-22T12:59:22;28.30;50.30
27567;DHT22;15006;48.584;9.186;2023-06-22T13:01:48;28.30;50.20
27567;DHT22;15006;48.584;9.186;2023-06-22T13:04:14;28.30;50.40
27567;DHT22;15006;48.584;9.186;2023-06-22T13:06:41;28.30;50.90
27567;DHT22;15006;48.584;9.186;2023-06-22T13:09:08;28.30;51.20
27567;DHT22;15006;48.584;9.186;2023-06-22T13:11:35;28.30;50.80
27567;DHT22;15006;48.584;9.186;2023-06-22T13:14:02;28.30;50.70
27567;DHT22;15006;48.584;9.186;2023-06-22T13:16:28;28.40;50.00
27567;DHT22;15006;48.584;9.186;2023-06-22T13:18:54;28.50;51.30
27567;DHT22;15006;48.584;9.186;2023-06-22T13:21:20;28.60;50.80
27567;DHT22;15006;48.584;9.186;2023-06-22T13:23:45;28.80;50.40
27567;DHT22;15006;48.584;9.186;2023-06-22T13:26:11;28.90;50.10
27567;DHT22;15006;48.584;9.186;2023-06-22T13:28:38;29.10;50.10
27567;DHT22;15006;48.584;9.186;2023-06-22T13:31:04;29.20;49.50
27567;DHT22;15006;48.584;9.186;2023-06-22T13:33:30;29.30;49.40
27567;DHT22;15006;48.584;9.186;2023-06-22T13:35:56;29.40;49.70
27567;DHT22;15006;48.584;9.186;2023-06-22T13:38:22;29.40;50.60
27567;DHT22;15006;48.584;9.186;2023-06-22T13:40:48;29.50;50.10
27567;DHT22;15006;48.584;9.186;2023-06-22T13:43:16;29.70;49.50
27567;DHT22;15006;48.584;9.186;2023-06-22T13:45:43;29.90;48.60
27567;DHT22;15006;48.584;9.186;2023-06-22T13:48:09;30.00;49.00
27567;DHT22;15006;48.584;9.186;2023-06-22T13:50:35;30.10;48.30
27567;DHT22;15006;48.584;9.186;2023-06-22T13:53:01;30.10;47.10
27567;DHT22;15006;48.584;9.186;2023-06-22T13:55:27;30.10;47.60
27567;DHT22;15006;48.584;9.186;2023-06-22T13:57:53;30.00;48.00
27567;DHT22;15006;48.584;9.186;2023-06-22T14:00:20;30.00;47.70
27567;DHT22;15006;48.584;9.186;2023-06-22T14:02:46;29.90;47.80
27567;DHT22;15006;48.584;9.186;2023-06-22T14:05:12;29.90;47.60
27567;DHT22;15006;48.584;9.186;2023-06-22T14:07:38;29.70;47.40
27567;DHT22;15006;48.584;9.186;2023-06-22T14:10:04;29.60;48.30
27567;DHT22;15006;48.584;9.186;2023-06-22T14:12:31;29.40;48.40
27567;DHT22;15006;48.584;9.186;2023-06-22T14:14:57;29.30;48.90
27567;DHT22;15006;48.584;9.186;2023-06-22T14:17:23;29.30;49.20
27567;DHT22;15006;48.584;9.186;2023-06-22T14:19:52;29.20;49.10
27567;DHT22;15006;48.584;9.186;2023-06-22T14:22:19;29.10;49.50
27567;DHT22;15006;48.584;9.186;2023-06-22T14:24:47;29.10;49.60
27567;DHT22;15006;48.584;9.186;2023-06-22T14:27:13;29.10;49.70
27567;DHT22;15006;48.584;9.186;2023-06-22T14:29:39;29.10;49.70
27567;DHT22;15006;48.584;9.186;2023-06-22T14:32:06;29.30;50.20
27567;DHT22;15006;48.584;9.186;2023-06-22T14:34:33;29.40;50.60
27567;DHT22;15006;48.584;9.186;2023-06-22T14:37:02;29.60;50.10
27567;DHT22;15006;48.584;9.186;2023-06-22T14:39:28;29.80;49.70
27567;DHT22;15006;48.584;9.186;2023-06-22T14:41:54;30.00;50.00
27567;DHT22;15006;48.584;9.186;2023-06-22T14:44:21;30.10;49.00
27567;DHT22;15006;48.584;9.186;2023-06-22T14:46:47;30.20;48.90
27567;DHT22;15006;48.584;9.186;2023-06-22T14:49:13;30.30;49.00
27567;DHT22;15006;48.584;9.186;2023-06-22T14:51:39;30.40;48.70
27567;DHT22;15006;48.584;9.186;2023-06-22T14:54:05;30.50;47.60
27567;DHT22;15006;48.584;9.186;2023-06-22T14:56:31;30.60;46.80
27567;DHT22;15006;48.584;9.186;2023-06-22T14:58:57;30.60;46.80
27567;DHT22;15006;48.584;9.186;2023-06-22T15:01:23;30.60;46.80
27567;DHT22;15006;48.584;9.186;2023-06-22T15:03:49;30.60;45.90
27567;DHT22;15006;48.584;9.186;2023-06-22T15:06:15;30.50;46.10
27567;DHT22;15006;48.584;9.186;2023-06-22T15:08:41;30.50;45.10
27567;DHT22;15006;48.584;9.186;2023-06-22T15:11:08;30.40;43.80
27567;DHT22;15006;48.584;9.186;2023-06-22T15:13:34;30.30;41.80
27567;DHT22;15006;48.584;9.186;2023-06-22T15:16:02;30.20;40.30
27567;DHT22;15006;48.584;9.186;2023-06-22T15:18:31;30.10;40.90
27567;DHT22;15006;48.584;9.186;2023-06-22T15:20:59;30.00;40.70
27567;DHT22;15006;48.584;9.186;2023-06-22T15:23:27;30.00;40.20
27567;DHT22;15006;48.584;9.186;2023-06-22T15:25:57;29.90;39.70
27567;DHT22;15006;48.584;9.186;2023-06-22T15:28:24;29.80;39.80
27567;DHT22;15006;48.584;9.186;2023-06-22T15:30:51;29.60;39.90
27567;DHT22;15006;48.584;9.186;2023-06-22T15:33:17;29.40;39.40
27567;DHT22;15006;48.584;9.186;2023-06-22T15:35:44;29.30;39.40
27567;DHT22;15006;48.584;9.186;2023-06-22T15:38:10;29.00;40.00
27567;DHT22;15006;48.584;9.186;2023-06-22T15:40:36;28.90;40.30